sensor_id;sensor_type;location;lat;lon;timestamp;P1;durP1;ratioP1;P2;durP2;ratioP2
46355;SDS011;32066;49.474;11.106;2022-12-24T00:01:01;8.38;;;1.52;;
46355;SDS011;32066;49.474;11.106;2022-12-24T00:03:28;7.60;;;2.10;;
46355;SDS011;32066;49.474;11.106;2022-12-24T00:05:55;8.75;;;2.03;;
46355;SDS011;32066;49.474;11.106;2022-12-24T00:08:22;8.95;;;1.58;;
46355;SDS011;32066;49.474;11.106;2022-12-24T00:10:51;6.93;;;1.70;;
46355;SDS011;32066;49.474;11.106;2022-12-24T00:13:18;5.90;;;1.95;;
46355;SDS011;32066;49.474;11.106;2022-12-24T00:15:46;8.07;;;2.00;;
46355;SDS011;32066;49.474;11.106;2022-12-24T00:18:13;8.07;;;1.83;;
46355;SDS011;32066;49.474;11.106;2022-12-24T00:20:40;13.57;;;2.42;;
46355;SDS011;32066;49.474;11.106;2022-12-24T00:23:10;12.25;;;1.90;;
46355;SDS011;32066;49.474;11.106;2022-12-24T00:25:37;8.73;;;2.10;;
46355;SDS011;32066;49.474;11.106;2022-12-24T00:28:05;7.78;;;1.60;;
46355;SDS011;32066;49.474;11.106;2022-12-24T00:30:32;11.60;;;1.98;;
46355;SDS011;32066;49.474;11.106;2022-12-24T00:32:58;11.02;;;1.85;;
46355;SDS011;32066;49.474;11.106;2022-12-24T00:35:25;9.57;;;2.40;;
46355;SDS011;32066;49.474;11.106;2022-12-24T00:37:52;8.82;;;2.03;;
46355;SDS011;32066;49.474;11.106;2022-12-24T00:40:19;6.47;;;1.65;;
46355;SDS011;32066;49.474;11.106;2022-12-24T00:42:46;9.10;;;1.80;;
46355;SDS011;32066;49.474;11.106;2022-12-24T00:45:14;7.97;;;1.90;;
46355;SDS011;32066;49.474;11.106;2022-12-24T00:47:41;14.93;;;3.50;;
46355;SDS011;32066;49.474;11.106;2022-12-24T00:50:08;9.52;;;1.90;;
46355;SDS011;32066;49.474;11.106;2022-12-24T00:52:35;7.20;;;1.83;;
46355;SDS011;32066;49.474;11.106;2022-12-24T00:55:02;7.82;;;1.80;;
46355;SDS011;32066;49.474;11.106;2022-12-24T00:57:29;8.93;;;1.65;;
46355;SDS011;32066;49.474;11.106;2022-12-24T00:59:56;10.65;;;1.90;;
46355;SDS011;32066;49.474;11.106;2022-12-24T01:02:24;9.90;;;2.15;;
46355;SDS011;32066;49.474;11.106;2022-12-24T01:04:51;11.15;;;2.88;;
46355;SDS011;32066;49.474;11.106;2022-12-24T01:07:32;8.10;;;1.80;;
46355;SDS011;32066;49.474;11.106;2022-12-24T01:09:59;8.93;;;2.40;;
46355;SDS011;32066;49.474;11.106;2022-12-24T01:12:26;8.60;;;1.92;;
46355;SDS011;32066;49.474;11.106;2022-12-24T01:14:52;8.52;;;2.10;;
46355;SDS011;32066;49.474;11.106;2022-12-24T01:17:19;10.07;;;1.77;;
46355;SDS011;32066;49.474;11.106;2022-12-24T01:19:48;11.80;;;2.70;;
46355;SDS011;32066;49.474;11.106;2022-12-24T01:22:15;9.63;;;1.83;;
46355;SDS011;32066;49.474;11.106;2022-12-24T01:24:42;10.25;;;3.13;;
46355;SDS011;32066;49.474;11.106;2022-12-24T01:27:09;11.73;;;2.38;;
46355;SDS011;32066;49.474;11.106;2022-12-24T01:29:36;9.77;;;1.75;;
46355;SDS011;32066;49.474;11.106;2022-12-24T01:32:03;13.27;;;2.28;;
46355;SDS011;32066;49.474;11.106;2022-12-24T01:34:30;12.77;;;2.67;;
46355;SDS011;32066;49.474;11.106;2022-12-24T01:36:58;9.98;;;1.90;;
46355;SDS011;32066;49.474;11.106;2022-12-24T01:39:25;10.40;;;2.13;;
46355;SDS011;32066;49.474;11.106;2022-12-24T01:41:52;11.60;;;2.10;;
46355;SDS011;32066;49.474;11.106;2022-12-24T01:44:38;9.35;;;2.05;;
46355;SDS011;32066;49.474;11.106;2022-12-24T01:47:08;9.23;;;2.08;;
46355;SDS011;32066;49.474;11.106;2022-12-24T01:49:40;8.20;;;1.67;;
46355;SDS011;32066;49.474;11.106;2022-12-24T01:52:11;9.68;;;1.90;;
46355;SDS011;32066;49.474;11.106;2022-12-24T01:54:43;11.30;;;2.35;;
46355;SDS011;32066;49.474;11.106;2022-12-24T01:57:14;9.73;;;1.85;;
46355;SDS011;32066;49.474;11.106;2022-12-24T01:59:44;10.15;;;1.90;;
46355;SDS011;32066;49.474;11.106;2022-12-24T02:02:14;9.13;;;2.70;;
46355;SDS011;32066;49.474;11.106;2022-12-24T02:04:43;12.10;;;2.25;;
46355;SDS011;32066;49.474;11.106;2022-12-24T02:07:17;8.75;;;2.10;;
46355;SDS011;32066;49.474;11.106;2022-12-24T02:09:44;11.55;;;2.20;;
46355;SDS011;32066;49.474;11.106;2022-12-24T02:12:12;10.95;;;2.08;;
46355;SDS011;32066;49.474;11.106;2022-12-24T02:14:39;12.60;;;2.15;;
46355;SDS011;32066;49.474;11.106;2022-12-24T02:17:09;10.45;;;2.53;;
46355;SDS011;32066;49.474;11.106;2022-12-24T02:19:55;11.85;;;2.17;;
46355;SDS011;32066;49.474;11.106;2022-12-24T02:22:44;9.88;;;2.00;;
46355;SDS011;32066;49.474;11.106;2022-12-24T02:25:31;8.95;;;2.20;;
46355;SDS011;32066;49.474;11.106;2022-12-24T02:28:11;14.57;;;2.47;;
46355;SDS011;32066;49.474;11.106;2022-12-24T02:30:49;10.73;;;2.10;;
46355;SDS011;32066;49.474;11.106;2022-12-24T02:33:23;11.93;;;2.50;;
46355;SDS011;32066;49.474;11.106;2022-12-24T02:35:55;8.85;;;1.90;;
46355;SDS011;32066;49.474;11.106;2022-12-24T02:38:27;10.05;;;1.90;;
46355;SDS011;32066;49.474;11.106;2022-12-24T02:40:58;12.98;;;2.33;;
46355;SDS011;32066;49.474;11.106;2022-12-24T02:43:31;11.77;;;2.03;;
46355;SDS011;32066;49.474;11.106;2022-12-24T02:46:03;14.90;;;2.80;;
46355;SDS011;32066;49.474;11.106;2022-12-24T02:48:34;13.18;;;3.13;;
46355;SDS011;32066;49.474;11.106;2022-12-24T02:51:04;12.98;;;2.45;;
46355;SDS011;32066;49.474;11.106;2022-12-24T02:53:33;11.57;;;2.50;;
46355;SDS011;32066;49.474;11.106;2022-12-24T02:56:08;14.43;;;2.78;;
46355;SDS011;32066;49.474;11.106;2022-12-24T02:58:46;8.90;;;2.33;;
46355;SDS011;32066;49.474;11.106;2022-12-24T03:01:26;12.30;;;2.42;;
46355;SDS011;32066;49.474;11.106;2022-12-24T03:04:05;8.18;;;1.88;;
46355;SDS011;32066;49.474;11.106;2022-12-24T03:06:38;11.95;;;2.30;;
46355;SDS011;32066;49.474;11.106;2022-12-24T03:09:12;11.90;;;2.28;;
46355;SDS011;32066;49.474;11.106;2022-12-24T03:11:44;11.57;;;2.10;;
46355;SDS011;32066;49.474;11.106;2022-12-24T03:14:18;9.93;;;2.70;;
46355;SDS011;32066;49.474;11.106;2022-12-24T03:16:48;11.65;;;2.30;;
46355;SDS011;32066;49.474;11.106;2022-12-24T03:19:15;10.82;;;3.03;;
46355;SDS011;32066;49.474;11.106;2022-12-24T03:21:42;14.95;;;2.45;;
46355;SDS011;32066;49.474;11.106;2022-12-24T03:24:10;12.85;;;3.08;;
46355;SDS011;32066;49.474;11.106;2022-12-24T03:26:37;13.50;;;2.53;;
46355;SDS011;32066;49.474;11.106;2022-12-24T03:29:05;8.52;;;2.22;;
46355;SDS011;32066;49.474;11.106;2022-12-24T03:31:40;8.57;;;1.90;;
46355;SDS011;32066;49.474;11.106;2022-12-24T03:34:09;10.02;;;1.98;;
46355;SDS011;32066;49.474;11.106;2022-12-24T03:36:37;12.93;;;2.33;;
46355;SDS011;32066;49.474;11.106;2022-12-24T03:39:04;11.77;;;2.22;;
46355;SDS011;32066;49.474;11.106;2022-12-24T03:41:31;11.35;;;2.30;;
46355;SDS011;32066;49.474;11.106;2022-12-24T03:43:58;13.30;;;2.55;;
46355;SDS011;32066;49.474;11.106;2022-12-24T03:46:25;11.88;;;2.50;;
46355;SDS011;32066;49.474;11.106;2022-12-24T03:48:52;8.02;;;1.98;;
46355;SDS011;32066;49.474;11.106;2022-12-24T03:51:21;10.88;;;2.33;;
46355;SDS011;32066;49.474;11.106;2022-12-24T03:53:50;11.38;;;2.13;;
46355;SDS011;32066;49.474;11.106;2022-12-24T03:56:17;9.70;;;1.95;;
46355;SDS011;32066;49.474;11.106;2022-12-24T03:58:45;13.20;;;2.30;;
46355;SDS011;32066;49.474;11.106;2022-12-24T04:01:12;11.50;;;2.45;;
46355;SDS011;32066;49.474;11.106;2022-12-24T04:03:38;10.98;;;2.40;;
46355;SDS011;32066;49.474;11.106;2022-12-24T04:06:07;10.70;;;1.92;;
46355;SDS011;32066;49.474;11.106;2022-12-24T04:08:37;9.98;;;2.33;;
46355;SDS011;32066;49.474;11.106;2022-12-24T04:11:04;11.73;;;2.20;;
46355;SDS011;32066;49.474;11.106;2022-12-24T04:13:32;14.05;;;2.17;;
46355;SDS011;32066;49.474;11.106;2022-12-24T04:15:59;8.68;;;2.17;;
46355;SDS011;32066;49.474;11.106;2022-12-24T04:18:28;12.93;;;2.72;;
46355;SDS011;32066;49.474;11.106;2022-12-24T04:20:56;11.18;;;2.20;;
46355;SDS011;32066;49.474;11.106;2022-12-24T04:23:23;11.43;;;2.20;;
46355;SDS011;32066;49.474;11.106;2022-12-24T04:25:51;10.68;;;2.22;;
46355;SDS011;32066;49.474;11.106;2022-12-24T04:28:18;12.98;;;2.33;;
46355;SDS011;32066;49.474;11.106;2022-12-24T04:30:45;12.07;;;2.17;;
46355;SDS011;32066;49.474;11.106;2022-12-24T04:33:11;9.77;;;2.13;;
46355;SDS011;32066;49.474;11.106;2022-12-24T04:35:38;10.35;;;2.03;;
46355;SDS011;32066;49.474;11.106;2022-12-24T04:38:06;10.32;;;2.30;;
46355;SDS011;32066;49.474;11.106;2022-12-24T04:40:33;12.52;;;2.53;;
46355;SDS011;32066;49.474;11.106;2022-12-24T04:43:02;11.02;;;2.20;;
46355;SDS011;32066;49.474;11.106;2022-12-24T04:45:28;12.75;;;2.50;;
46355;SDS011;32066;49.474;11.106;2022-12-24T04:47:56;7.03;;;1.70;;
46355;SDS011;32066;49.474;11.106;2022-12-24T04:50:23;9.38;;;2.13;;
46355;SDS011;32066;49.474;11.106;2022-12-24T04:52:50;8.00;;;1.90;;
46355;SDS011;32066;49.474;11.106;2022-12-24T04:55:17;11.63;;;2.17;;
46355;SDS011;32066;49.474;11.106;2022-12-24T04:57:44;12.02;;;2.20;;
46355;SDS011;32066;49.474;11.106;2022-12-24T05:00:13;10.93;;;2.67;;
46355;SDS011;32066;49.474;11.106;2022-12-24T05:02:40;16.88;;;2.75;;
46355;SDS011;32066;49.474;11.106;2022-12-24T05:05:07;13.20;;;2.08;;
46355;SDS011;32066;49.474;11.106;2022-12-24T05:07:34;9.50;;;2.08;;
46355;SDS011;32066;49.474;11.106;2022-12-24T05:10:01;15.23;;;2.60;;
46355;SDS011;32066;49.474;11.106;2022-12-24T05:12:28;8.90;;;1.98;;
46355;SDS011;32066;49.474;11.106;2022-12-24T05:14:55;12.52;;;2.55;;
46355;SDS011;32066;49.474;11.106;2022-12-24T05:17:24;11.57;;;2.25;;
46355;SDS011;32066;49.474;11.106;2022-12-24T05:19:50;8.32;;;1.98;;
46355;SDS011;32066;49.474;11.106;2022-12-24T05:22:17;12.40;;;2.80;;
46355;SDS011;32066;49.474;11.106;2022-12-24T05:25:01;12.25;;;2.05;;
46355;SDS011;32066;49.474;11.106;2022-12-24T05:27:46;9.88;;;2.03;;
46355;SDS011;32066;49.474;11.106;2022-12-24T05:30:13;11.77;;;2.22;;
46355;SDS011;32066;49.474;11.106;2022-12-24T05:32:41;10.32;;;2.50;;
46355;SDS011;32066;49.474;11.106;2022-12-24T05:35:08;10.93;;;2.13;;
46355;SDS011;32066;49.474;11.106;2022-12-24T05:37:35;9.70;;;2.28;;
46355;SDS011;32066;49.474;11.106;2022-12-24T05:40:02;10.48;;;2.10;;
46355;SDS011;32066;49.474;11.106;2022-12-24T05:42:29;17.55;;;2.42;;
46355;SDS011;32066;49.474;11.106;2022-12-24T05:44:56;12.65;;;2.45;;
46355;SDS011;32066;49.474;11.106;2022-12-24T05:47:22;11.02;;;2.20;;
46355;SDS011;32066;49.474;11.106;2022-12-24T05:49:51;12.27;;;2.40;;
46355;SDS011;32066;49.474;11.106;2022-12-24T05:52:17;9.85;;;1.88;;
46355;SDS011;32066;49.474;11.106;2022-12-24T05:54:44;17.38;;;2.55;;
46355;SDS011;32066;49.474;11.106;2022-12-24T05:57:11;12.98;;;2.25;;
46355;SDS011;32066;49.474;11.106;2022-12-24T05:59:38;12.65;;;2.25;;
46355;SDS011;32066;49.474;11.106;2022-12-24T06:02:05;11.75;;;2.53;;
46355;SDS011;32066;49.474;11.106;2022-12-24T06:04:32;17.40;;;2.88;;
46355;SDS011;32066;49.474;11.106;2022-12-24T06:07:00;16.33;;;2.00;;
46355;SDS011;32066;49.474;11.106;2022-12-24T06:09:27;12.77;;;2.30;;
46355;SDS011;32066;49.474;11.106;2022-12-24T06:11:54;11.23;;;2.50;;
46355;SDS011;32066;49.474;11.106;2022-12-24T06:14:21;13.68;;;2.10;;
46355;SDS011;32066;49.474;11.106;2022-12-24T06:16:48;16.42;;;2.40;;
46355;SDS011;32066;49.474;11.106;2022-12-24T06:19:15;11.55;;;2.40;;
46355;SDS011;32066;49.474;11.106;2022-12-24T06:21:42;9.60;;;1.75;;
46355;SDS011;32066;49.474;11.106;2022-12-24T06:24:10;13.88;;;2.58;;
46355;SDS011;32066;49.474;11.106;2022-12-24T06:26:37;13.00;;;2.30;;
46355;SDS011;32066;49.474;11.106;2022-12-24T06:29:03;11.43;;;2.53;;
46355;SDS011;32066;49.474;11.106;2022-12-24T06:31:31;16.08;;;2.55;;
46355;SDS011;32066;49.474;11.106;2022-12-24T06:33:58;13.45;;;2.65;;
46355;SDS011;32066;49.474;11.106;2022-12-24T06:36:25;13.85;;;2.63;;
46355;SDS011;32066;49.474;11.106;2022-12-24T06:38:52;9.95;;;2.13;;
46355;SDS011;32066;49.474;11.106;2022-12-24T06:41:21;14.05;;;2.50;;
46355;SDS011;32066;49.474;11.106;2022-12-24T06:43:49;11.63;;;2.60;;
46355;SDS011;32066;49.474;11.106;2022-12-24T06:46:18;14.73;;;2.70;;
46355;SDS011;32066;49.474;11.106;2022-12-24T06:48:45;13.73;;;2.80;;
46355;SDS011;32066;49.474;11.106;2022-12-24T06:51:13;13.73;;;2.95;;
46355;SDS011;32066;49.474;11.106;2022-12-24T06:53:40;13.32;;;2.50;;
46355;SDS011;32066;49.474;11.106;2022-12-24T06:56:08;13.43;;;2.15;;
46355;SDS011;32066;49.474;11.106;2022-12-24T06:58:38;12.27;;;2.50;;
46355;SDS011;32066;49.474;11.106;2022-12-24T07:01:06;14.27;;;3.22;;
46355;SDS011;32066;49.474;11.106;2022-12-24T07:03:38;16.13;;;2.50;;
46355;SDS011;32066;49.474;11.106;2022-12-24T07:06:05;13.95;;;2.55;;
46355;SDS011;32066;49.474;11.106;2022-12-24T07:08:41;13.40;;;2.30;;
46355;SDS011;32066;49.474;11.106;2022-12-24T07:11:08;9.95;;;2.10;;
46355;SDS011;32066;49.474;11.106;2022-12-24T07:13:34;15.07;;;3.38;;
46355;SDS011;32066;49.474;11.106;2022-12-24T07:16:03;13.15;;;2.90;;
46355;SDS011;32066;49.474;11.106;2022-12-24T07:18:30;16.45;;;4.07;;
46355;SDS011;32066;49.474;11.106;2022-12-24T07:20:57;10.07;;;2.60;;
46355;SDS011;32066;49.474;11.106;2022-12-24T07:23:24;17.10;;;3.70;;
46355;SDS011;32066;49.474;11.106;2022-12-24T07:25:51;16.35;;;3.45;;
46355;SDS011;32066;49.474;11.106;2022-12-24T07:28:18;14.60;;;2.47;;
46355;SDS011;32066;49.474;11.106;2022-12-24T07:30:45;17.27;;;3.63;;
46355;SDS011;32066;49.474;11.106;2022-12-24T07:33:14;15.85;;;2.90;;
46355;SDS011;32066;49.474;11.106;2022-12-24T07:35:41;17.20;;;2.70;;
46355;SDS011;32066;49.474;11.106;2022-12-24T07:38:08;13.30;;;2.90;;
46355;SDS011;32066;49.474;11.106;2022-12-24T07:40:36;15.32;;;3.20;;
46355;SDS011;32066;49.474;11.106;2022-12-24T07:43:03;16.73;;;3.08;;
46355;SDS011;32066;49.474;11.106;2022-12-24T07:45:30;19.80;;;3.67;;
46355;SDS011;32066;49.474;11.106;2022-12-24T07:47:57;16.10;;;3.28;;
46355;SDS011;32066;49.474;11.106;2022-12-24T07:50:25;15.52;;;3.10;;
46355;SDS011;32066;49.474;11.106;2022-12-24T07:52:52;18.17;;;3.72;;
46355;SDS011;32066;49.474;11.106;2022-12-24T07:55:19;14.63;;;3.42;;
46355;SDS011;32066;49.474;11.106;2022-12-24T07:57:45;11.05;;;3.20;;
46355;SDS011;32066;49.474;11.106;2022-12-24T08:00:13;14.80;;;3.88;;
46355;SDS011;32066;49.474;11.106;2022-12-24T08:02:40;13.70;;;3.10;;
46355;SDS011;32066;49.474;11.106;2022-12-24T08:05:07;14.30;;;2.88;;
46355;SDS011;32066;49.474;11.106;2022-12-24T08:07:35;13.45;;;3.38;;
46355;SDS011;32066;49.474;11.106;2022-12-24T08:10:02;13.68;;;3.40;;
46355;SDS011;32066;49.474;11.106;2022-12-24T08:12:30;11.55;;;2.97;;
46355;SDS011;32066;49.474;11.106;2022-12-24T08:14:56;19.40;;;3.80;;
46355;SDS011;32066;49.474;11.106;2022-12-24T08:17:23;15.05;;;3.00;;
46355;SDS011;32066;49.474;11.106;2022-12-24T08:19:50;17.50;;;3.33;;
46355;SDS011;32066;49.474;11.106;2022-12-24T08:22:17;15.98;;;3.75;;
46355;SDS011;32066;49.474;11.106;2022-12-24T08:24:45;10.75;;;3.35;;
46355;SDS011;32066;49.474;11.106;2022-12-24T08:27:12;17.08;;;3.38;;
46355;SDS011;32066;49.474;11.106;2022-12-24T08:29:39;16.33;;;3.15;;
46355;SDS011;32066;49.474;11.106;2022-12-24T08:32:05;15.93;;;3.53;;
46355;SDS011;32066;49.474;11.106;2022-12-24T08:34:32;14.90;;;3.25;;
46355;SDS011;32066;49.474;11.106;2022-12-24T08:36:59;14.80;;;3.47;;
46355;SDS011;32066;49.474;11.106;2022-12-24T08:39:26;17.90;;;4.32;;
46355;SDS011;32066;49.474;11.106;2022-12-24T08:41:54;15.40;;;3.33;;
46355;SDS011;32066;49.474;11.106;2022-12-24T08:44:21;20.30;;;4.65;;
46355;SDS011;32066;49.474;11.106;2022-12-24T08:46:48;20.50;;;3.38;;
46355;SDS011;32066;49.474;11.106;2022-12-24T08:49:14;17.92;;;3.58;;
46355;SDS011;32066;49.474;11.106;2022-12-24T08:51:41;19.08;;;3.72;;
46355;SDS011;32066;49.474;11.106;2022-12-24T08:54:08;17.05;;;3.65;;
46355;SDS011;32066;49.474;11.106;2022-12-24T08:56:35;16.05;;;4.05;;
46355;SDS011;32066;49.474;11.106;2022-12-24T08:59:03;20.67;;;3.95;;
46355;SDS011;32066;49.474;11.106;2022-12-24T09:01:30;16.63;;;3.80;;
46355;SDS011;32066;49.474;11.106;2022-12-24T09:03:57;20.95;;;3.92;;
46355;SDS011;32066;49.474;11.106;2022-12-24T09:06:24;16.42;;;3.28;;
46355;SDS011;32066;49.474;11.106;2022-12-24T09:08:51;21.00;;;4.57;;
46355;SDS011;32066;49.474;11.106;2022-12-24T09:11:18;19.30;;;4.13;;
46355;SDS011;32066;49.474;11.106;2022-12-24T09:13:45;19.73;;;3.75;;
46355;SDS011;32066;49.474;11.106;2022-12-24T09:16:13;22.42;;;3.90;;
46355;SDS011;32066;49.474;11.106;2022-12-24T09:18:40;18.50;;;3.97;;
46355;SDS011;32066;49.474;11.106;2022-12-24T09:21:08;18.63;;;3.50;;
46355;SDS011;32066;49.474;11.106;2022-12-24T09:23:38;16.42;;;4.07;;
46355;SDS011;32066;49.474;11.106;2022-12-24T09:26:06;23.90;;;4.85;;
46355;SDS011;32066;49.474;11.106;2022-12-24T09:28:34;22.20;;;5.28;;
46355;SDS011;32066;49.474;11.106;2022-12-24T09:31:01;20.00;;;3.58;;
46355;SDS011;32066;49.474;11.106;2022-12-24T09:33:31;22.35;;;4.22;;
46355;SDS011;32066;49.474;11.106;2022-12-24T09:36:01;19.02;;;4.97;;
46355;SDS011;32066;49.474;11.106;2022-12-24T09:38:28;19.70;;;4.25;;
46355;SDS011;32066;49.474;11.106;2022-12-24T09:40:55;23.17;;;4.00;;
46355;SDS011;32066;49.474;11.106;2022-12-24T09:43:24;18.85;;;4.05;;
46355;SDS011;32066;49.474;11.106;2022-12-24T09:45:57;19.50;;;3.88;;
46355;SDS011;32066;49.474;11.106;2022-12-24T09:48:33;22.38;;;5.20;;
46355;SDS011;32066;49.474;11.106;2022-12-24T09:51:03;17.88;;;3.67;;
46355;SDS011;32066;49.474;11.106;2022-12-24T09:53:35;18.67;;;4.25;;
46355;SDS011;32066;49.474;11.106;2022-12-24T09:56:05;24.33;;;4.35;;
46355;SDS011;32066;49.474;11.106;2022-12-24T09:58:38;18.77;;;3.60;;
46355;SDS011;32066;49.474;11.106;2022-12-24T10:01:10;21.55;;;4.65;;
46355;SDS011;32066;49.474;11.106;2022-12-24T10:03:39;19.73;;;3.63;;
46355;SDS011;32066;49.474;11.106;2022-12-24T10:06:07;18.20;;;3.83;;
46355;SDS011;32066;49.474;11.106;2022-12-24T10:08:42;17.10;;;3.45;;
46355;SDS011;32066;49.474;11.106;2022-12-24T10:11:18;22.30;;;3.63;;
46355;SDS011;32066;49.474;11.106;2022-12-24T10:13:58;22.02;;;4.50;;
46355;SDS011;32066;49.474;11.106;2022-12-24T10:16:36;20.90;;;3.67;;
46355;SDS011;32066;49.474;11.106;2022-12-24T10:19:12;21.65;;;3.65;;
46355;SDS011;32066;49.474;11.106;2022-12-24T10:21:45;20.30;;;3.63;;
46355;SDS011;32066;49.474;11.106;2022-12-24T10:24:23;20.77;;;3.55;;
46355;SDS011;32066;49.474;11.106;2022-12-24T10:26:56;19.40;;;4.13;;
46355;SDS011;32066;49.474;11.106;2022-12-24T10:29:28;18.50;;;3.72;;
46355;SDS011;32066;49.474;11.106;2022-12-24T10:31:59;22.52;;;3.63;;
46355;SDS011;32066;49.474;11.106;2022-12-24T10:34:42;18.10;;;3.63;;
46355;SDS011;32066;49.474;11.106;2022-12-24T10:37:11;22.90;;;4.30;;
46355;SDS011;32066;49.474;11.106;2022-12-24T10:39:44;16.63;;;4.15;;
46355;SDS011;32066;49.474;11.106;2022-12-24T10:42:11;27.52;;;4.88;;
46355;SDS011;32066;49.474;11.106;2022-12-24T10:44:40;12.40;;;3.67;;
46355;SDS011;32066;49.474;11.106;2022-12-24T10:47:08;17.75;;;3.78;;
46355;SDS011;32066;49.474;11.106;2022-12-24T10:49:38;24.58;;;4.95;;
46355;SDS011;32066;49.474;11.106;2022-12-24T10:52:10;19.10;;;3.53;;
46355;SDS011;32066;49.474;11.106;2022-12-24T10:55:03;21.95;;;4.10;;
46355;SDS011;32066;49.474;11.106;2022-12-24T10:57:35;18.73;;;3.45;;
46355;SDS011;32066;49.474;11.106;2022-12-24T11:00:04;21.67;;;4.53;;
46355;SDS011;32066;49.474;11.106;2022-12-24T11:02:32;11.65;;;3.10;;
46355;SDS011;32066;49.474;11.106;2022-12-24T11:05:01;24.23;;;3.80;;
46355;SDS011;32066;49.474;11.106;2022-12-24T11:07:32;23.13;;;3.88;;
46355;SDS011;32066;49.474;11.106;2022-12-24T11:09:59;21.52;;;4.68;;
46355;SDS011;32066;49.474;11.106;2022-12-24T11:12:28;17.25;;;3.53;;
46355;SDS011;32066;49.474;11.106;2022-12-24T11:14:58;18.25;;;3.65;;
46355;SDS011;32066;49.474;11.106;2022-12-24T11:17:27;17.95;;;3.70;;
46355;SDS011;32066;49.474;11.106;2022-12-24T11:19:54;20.45;;;3.70;;
46355;SDS011;32066;49.474;11.106;2022-12-24T11:22:22;23.13;;;3.72;;
46355;SDS011;32066;49.474;11.106;2022-12-24T11:25:00;13.93;;;3.33;;
46355;SDS011;32066;49.474;11.106;2022-12-24T11:27:31;15.73;;;3.03;;
46355;SDS011;32066;49.474;11.106;2022-12-24T11:30:16;14.75;;;3.78;;
46355;SDS011;32066;49.474;11.106;2022-12-24T11:32:48;23.05;;;4.53;;
46355;SDS011;32066;49.474;11.106;2022-12-24T11:35:18;14.73;;;3.30;;
46355;SDS011;32066;49.474;11.106;2022-12-24T11:37:46;16.73;;;4.05;;
46355;SDS011;32066;49.474;11.106;2022-12-24T11:40:20;20.20;;;3.58;;
46355;SDS011;32066;49.474;11.106;2022-12-24T11:42:50;16.95;;;3.80;;
46355;SDS011;32066;49.474;11.106;2022-12-24T11:45:24;12.48;;;3.35;;
46355;SDS011;32066;49.474;11.106;2022-12-24T11:47:53;14.55;;;3.17;;
46355;SDS011;32066;49.474;11.106;2022-12-24T11:50:22;16.83;;;3.50;;
46355;SDS011;32066;49.474;11.106;2022-12-24T11:52:51;19.17;;;3.55;;
46355;SDS011;32066;49.474;11.106;2022-12-24T11:55:27;19.30;;;4.40;;
46355;SDS011;32066;49.474;11.106;2022-12-24T11:58:03;14.93;;;2.92;;
46355;SDS011;32066;49.474;11.106;2022-12-24T12:00:38;18.90;;;4.28;;
46355;SDS011;32066;49.474;11.106;2022-12-24T12:03:09;15.65;;;3.67;;
46355;SDS011;32066;49.474;11.106;2022-12-24T12:05:49;17.45;;;3.97;;
46355;SDS011;32066;49.474;11.106;2022-12-24T12:08:19;19.20;;;3.85;;
46355;SDS011;32066;49.474;11.106;2022-12-24T12:10:49;19.20;;;3.60;;
46355;SDS011;32066;49.474;11.106;2022-12-24T12:13:19;16.13;;;3.95;;
46355;SDS011;32066;49.474;11.106;2022-12-24T12:15:54;23.70;;;4.30;;
46355;SDS011;32066;49.474;11.106;2022-12-24T12:18:31;16.42;;;3.55;;
46355;SDS011;32066;49.474;11.106;2022-12-24T12:21:02;16.90;;;3.08;;
46355;SDS011;32066;49.474;11.106;2022-12-24T12:23:32;18.60;;;4.05;;
46355;SDS011;32066;49.474;11.106;2022-12-24T12:26:03;11.27;;;2.95;;
46355;SDS011;32066;49.474;11.106;2022-12-24T12:28:36;20.95;;;3.88;;
46355;SDS011;32066;49.474;11.106;2022-12-24T12:31:09;20.60;;;3.95;;
46355;SDS011;32066;49.474;11.106;2022-12-24T12:33:40;20.42;;;3.72;;
46355;SDS011;32066;49.474;11.106;2022-12-24T12:36:12;18.40;;;3.75;;
46355;SDS011;32066;49.474;11.106;2022-12-24T12:38:43;20.55;;;3.50;;
46355;SDS011;32066;49.474;11.106;2022-12-24T12:41:15;24.00;;;4.50;;
46355;SDS011;32066;49.474;11.106;2022-12-24T12:43:55;20.17;;;3.75;;
46355;SDS011;32066;49.474;11.106;2022-12-24T12:46:45;18.45;;;4.15;;
46355;SDS011;32066;49.474;11.106;2022-12-24T12:49:26;22.17;;;4.30;;
46355;SDS011;32066;49.474;11.106;2022-12-24T12:52:01;15.48;;;3.58;;
46355;SDS011;32066;49.474;11.106;2022-12-24T12:54:40;20.98;;;3.90;;
46355;SDS011;32066;49.474;11.106;2022-12-24T12:57:16;19.00;;;3.80;;
46355;SDS011;32066;49.474;11.106;2022-12-24T12:59:47;23.13;;;4.88;;
46355;SDS011;32066;49.474;11.106;2022-12-24T13:02:22;15.70;;;4.20;;
46355;SDS011;32066;49.474;11.106;2022-12-24T13:07:50;17.42;;;4.22;;
46355;SDS011;32066;49.474;11.106;2022-12-24T13:10:34;16.30;;;3.38;;
46355;SDS011;32066;49.474;11.106;2022-12-24T13:13:19;18.85;;;4.15;;
46355;SDS011;32066;49.474;11.106;2022-12-24T13:16:16;13.35;;;3.25;;
46355;SDS011;32066;49.474;11.106;2022-12-24T13:19:19;20.63;;;4.15;;
46355;SDS011;32066;49.474;11.106;2022-12-24T13:21:54;21.42;;;4.75;;
46355;SDS011;32066;49.474;11.106;2022-12-24T13:24:22;19.10;;;4.25;;
46355;SDS011;32066;49.474;11.106;2022-12-24T13:27:02;18.02;;;3.33;;
46355;SDS011;32066;49.474;11.106;2022-12-24T13:29:43;14.70;;;3.28;;
46355;SDS011;32066;49.474;11.106;2022-12-24T13:35:30;16.90;;;3.53;;
46355;SDS011;32066;49.474;11.106;2022-12-24T13:44:22;17.90;;;3.78;;
46355;SDS011;32066;49.474;11.106;2022-12-24T13:47:02;16.70;;;3.90;;
46355;SDS011;32066;49.474;11.106;2022-12-24T13:49:42;18.70;;;3.97;;
46355;SDS011;32066;49.474;11.106;2022-12-24T13:52:16;14.20;;;3.95;;
46355;SDS011;32066;49.474;11.106;2022-12-24T13:54:49;14.47;;;2.93;;
46355;SDS011;32066;49.474;11.106;2022-12-24T13:57:37;16.42;;;3.00;;
46355;SDS011;32066;49.474;11.106;2022-12-24T14:00:21;16.33;;;3.08;;
46355;SDS011;32066;49.474;11.106;2022-12-24T14:02:56;20.83;;;3.67;;
46355;SDS011;32066;49.474;11.106;2022-12-24T14:05:28;14.70;;;3.33;;
46355;SDS011;32066;49.474;11.106;2022-12-24T14:07:58;15.05;;;3.33;;
46355;SDS011;32066;49.474;11.106;2022-12-24T14:10:30;16.98;;;3.95;;
46355;SDS011;32066;49.474;11.106;2022-12-24T14:13:02;16.25;;;3.60;;
46355;SDS011;32066;49.474;11.106;2022-12-24T14:15:59;17.65;;;4.05;;
46355;SDS011;32066;49.474;11.106;2022-12-24T14:18:28;16.95;;;4.00;;
46355;SDS011;32066;49.474;11.106;2022-12-24T14:21:02;16.67;;;3.60;;
46355;SDS011;32066;49.474;11.106;2022-12-24T14:23:34;18.95;;;3.80;;
46355;SDS011;32066;49.474;11.106;2022-12-24T14:26:11;14.90;;;4.18;;
46355;SDS011;32066;49.474;11.106;2022-12-24T14:28:42;16.15;;;4.28;;
46355;SDS011;32066;49.474;11.106;2022-12-24T14:31:13;15.70;;;3.83;;
46355;SDS011;32066;49.474;11.106;2022-12-24T14:33:43;14.52;;;3.28;;
46355;SDS011;32066;49.474;11.106;2022-12-24T14:36:11;18.27;;;3.97;;
46355;SDS011;32066;49.474;11.106;2022-12-24T14:38:40;16.00;;;3.90;;
46355;SDS011;32066;49.474;11.106;2022-12-24T14:41:13;15.02;;;3.45;;
46355;SDS011;32066;49.474;11.106;2022-12-24T14:43:59;14.50;;;3.80;;
46355;SDS011;32066;49.474;11.106;2022-12-24T14:46:35;14.82;;;4.13;;
46355;SDS011;32066;49.474;11.106;2022-12-24T14:49:10;24.95;;;4.55;;
46355;SDS011;32066;49.474;11.106;2022-12-24T14:51:48;19.30;;;4.05;;
46355;SDS011;32066;49.474;11.106;2022-12-24T14:54:27;18.15;;;3.35;;